Flight Number: EUR2243 Duration: 1:15
Departure: Munich Int'l (EDDM) at 07:30 Distance: 393 Nm
Arrival: Roma Fiumicino (LIRF) at 08:45 Equipment: A321

Weather Information
Munchen, Germany (EDDM) 48-21N 011-47E May 24, 2018 - 05:20 PM EDT / 2018.05.24 2120 UTC
Wind: from the SSW (210 degrees) at 7 MPH (6 KT):0
Visibility: 5 mile(s):0
Sky conditions: mostly cloudy Weather: rain with thunder; Cumulonimbus clouds observed Temperature: 59 F (15 C) Dew Point: 55 F (13 C) Relative Humidity: 87% Pressure (altimeter): 30.09 in. Hg (1019 hPa)
ob: EDDM 242120Z 21006KT 9000 TSRA FEW010 SCT022CB BKN080 15/13 Q1019 RESHGR BECMG NSW cycle: 21
Sunrise: 03:26 Sunset: 18:53 (UTC)

Roma Fiumicino, Italy (LIRF) 41-48N 012-14E 3M May 24, 2018 - 05:20 PM EDT / 2018.05.24 2120 UTC
Wind: from the WNW (300 degrees) at 6 MPH (5 KT):0
Visibility: greater than 7 mile(s):0 Temperature: 66 F (19 C) Dew Point: 62 F (17 C) Relative Humidity: 88% Pressure (altimeter): 30.00 in. Hg (1016 hPa)
ob: LIRF 242120Z 30005KT CAVOK 19/17 Q1016 NOSIG cycle: 21
Sunrise: 03:46 Sunset: 18:29 (UTC)

TAF:2018/05/24 18:22 TAF LIRF 241700Z 2418/2524 29012KT CAVOK BECMG 2418/2420 VRB04KT TEMPO 2501/2505 4000 BR BECMG 2508/2510 27013KT BECMG 2518/2520 VRB04KT

Previous Pireps for this route
Date Aircraft Flight time Fuel used Landing rate On time
2012-08-12MD-8101.47-1-220Yes
2012-10-14MD-8101.499572-308Yes
2012-12-20MD-8101.299127-304Yes
2013-01-14MD-811.1541420No
2013-01-22MD-811.139030.70No
2013-01-26B1900D02.151792-258Charter
2013-03-03MD-811.0578580No
2013-11-02A3211.17118880No
2014-05-06A3211.48160000No
2014-11-24A32101.269509-186Charter
2015-02-22B73701.238960-382Charter
2015-03-21A3211.2474580Charter
2015-04-05A32101.2310304-443Yes
2015-04-19A32101.248876-227Yes
2015-04-25A32101.217750-321Yes
2015-05-02B73701.4111534-570Charter
2015-05-07MD-811.1592780Yes
2015-05-08A32101.29-6380-210Yes
2015-05-15A32101.411741-479Yes
2015-05-21MD-811.2389570Yes
2015-12-15A32101.239937-32Charter
2016-05-21MD-8101.2710118-169Yes
2016-08-27A32101.187520-324Yes
2017-01-11B7372.1080000Charter
2017-01-13B73702.148792-6950Charter
(pireps marked green are flown by you)

Route map